Sunbeam, Illinois
Current Conditions -  °F | °C
As of 10:54 AM on Friday 24 Oct 2014 (Local Time) from KMLI Reporting Station
Haze Haze  
Wind Chill: 55°   Ceiling: 500
Heat Index: 55°   Visibility: 3mi
Dew Point: 52°   Wind: 9mph
Humidity: 89%   Direction: 180°S
Pressure: 30.07"   Gusts: NA
Location:  41.1928°N, 90.7165°W
Report Text: KMLI 241554Z 18008KT 3SM BR OVC005 13/11 A3007 RMK AO2 CIG 004V007 T01280111
Loading
Personal Weather Stations






























Interactive Weather Map
Tropical Storm Tracking
New forecast layout! Learn more

10-Day Weather Forecast

Advertisements
Track Severe Weather on mobile